Main page
METAR-TAF:

METAR-TAF

Airports :

Marabá Airport

Marabá, Pará, Brazil

latitude: 05-21S, longitude: 049-09W, elevation: 95 m

Current weather observation

The report was made 16 minutes ago, at 19:00 UTC
Wind 5 kt from the Northeast
Temperature 37°C
Humidity 40%
Pressure 1009 hPa
Visibility 10 km or more
Scattered clouds at a height of 2000 ft

METAR: SBMA 201900Z 04005KT 9999 SCT020 37/21 Q1009

Time: 16:16 (19:16 UTC)

Forecast

The report was made 3 hours and 18 minutes ago, at 15:58 UTC
Forecast valid from 20 at 18 UTC to 21 at 06 UTC
Wind 5 kt from the East/Northeast
Visibility 10 km or more
Scattered clouds at a height of 2000 ft
Becoming
from 20 at 21 UTC to 20 at 23 UTC
Wind 5 kt from the North/Northwest
Visibility 10 km or more
no clouds below 1500 m and no cumulonimbus

TAF: SBMA 201558Z 2018/2106 07005KT 9999 SCT020 TX40/2018Z TN26/2106Z BECMG 2021/2023 34005KT CAVOK RMK PHQ

Weather observations and forecasts of more than 4000 airports (METAR and TAF reports).

The available stations are represented by yellow and red dots on the map.

Hover mouse over dot to see the name of the station.

Then click to see weather observations and forecasts.

To change the map : click on the green buttons with a black cross to zoom in, on the green button with a dash to zoom out, or on the green arrows for adjacent maps.


METAR-TAF: